Terminal Aerodrome Forecast
Issued by NWS

Home | Current Version | Previous Version | Text Only | Print | Product List | Glossary On
Versions: 1 2 3 4 5 6 7 8 9 10 11 12 13 14 15 16 17 18 19 20 21 22 23 24 25 26 27
000
FTUS43 KICT 200520
TAFCNU
TAF
KCNU 200520Z 2006/2106 VRB03KT 4SM BR OVC015
      TEMPO 2008/2012 2SM BR BKN008
     FM201200 19004KT 4SM BR OVC015
     FM202100 18011KT P6SM BKN035=

USA.gov is the U.S. government's official web portal to all federal, state and local government web resources and services.